Terminal Aerodrome Forecast
Issued by NWS

Home | Current Version | Previous Version | Text Only | Print | Product List | Glossary Off
Versions: 1 2 3 4 5 6 7 8 9 10 11 12 13 14 15 16 17 18 19

000
FTUS43 KICT 041726
TAFSLN
TAF
KSLN 041726Z 0418/0518 19007KT P6SM SCT080 BKN200
     FM050000 16009KT P6SM VCTS SCT050CB OVC100
     FM051400 16013G19KT P6SM SCT035 BKN110=

USA.gov is the U.S. government's official web portal to all federal, state and local government web resources and services.